EGXE

Leeming Airport

Leeming, United Kingdom
METAR EGXE 190650Z 19002KT CAVOK 17/11 Q1019 BLU NOSIG
Observed Flight Rules
Jul-19 @ 06:50 UTC (39 minutes ago) Visual Flight Rules
Wind Visibility Clouds
190° at 2 knots 10,000+ meters
  • Clear skies
Temperatures Readings
Current 17°C / 63°F
Dewpoint 11°C / 52°F
Humidity 68%
Altimeter 30.09" Hg
Pressure 1019 hPa
Elevation 40
METAR EGXE 190650Z 19002KT CAVOK 17/11 Q1019 BLU NOSIG
Observed Flight Rules
Jul-19 @ 06:50 UTC
(39 minutes ago)
VFR
Wind Visibility
190° at 2 knots 10,000+ meters
Clouds
  • Clear skies
Temperature Dewpoint
17°C / 63°F 11°C / 52°F
Humidity Altimeter Pressure
68% 30.09" Hg 1019 hPa